No particular awareness of the weather is required.    There are no Weather-warnings


Nieuwrode (Holsbeek) more information Nieuwrode (Holsbeek)


Thunder radar more information blitzortung!


Rain radar more information rain snow radar



Nearby METAR Reports

  
EBBR - Brussels International Airport, Belgium
Distance from station: W 14km
Updated: 25-02-2018 19:50
Clear
Clear  
 Wind from ENE
Wind: ENE 17 km/h
Temperature:  -2°C
Wind Chill:  -7°C
Dew Point:  -12°C
Humidity:  47%
Barometer:  1027 hPa
Summary:  Clear
Visibility:  greater than 10 km
2018/02/25 18:50 EBBR 251850Z 06009KT CAVOK M02/M12 Q1027 NOSIG
EBBE - Beauvechain (Bevekom), Belgium
Distance from station: SSE 17km
Updated: 25-02-2018 19:55
Clear
Clear  
 Wind from NE
Wind: NE 19 km/h
Temperature:  -3°C
Wind Chill:  -9°C
Dew Point:  -13°C
Humidity:  46%
Barometer:  1027 hPa
Clouds:  Clear
Visibility:  10 km
2018/02/25 18:55 EBBE 251855Z AUTO 04010KT 9999 NCD M03/M13 Q1027 BLU
EBDT - Schaffen, Belgium
Distance from station: ENE 29km
Updated: 25-02-2018 19:55
Clear
Clear  
 Wind from NE
Wind: NE 17 km/h
Temperature:  -2°C
Wind Chill:  -7°C
Dew Point:  -13°C
Humidity:  43%
Barometer:  1028 hPa
Clouds:  Clear
Visibility:  10 km
2018/02/25 18:55 EBDT 251855Z AUTO 04009KT 9999 NCD M02/M13 Q1028 BLU
EBAW - Antwerp/Deurne, Belgium
Distance from station: NNW 38km
Updated: 25-02-2018 19:50
Clear
Clear  
 Wind from ENE
Wind: ENE 19 km/h
Temperature:  -1°C
Wind Chill:  -7°C
Dew Point:  -13°C
Humidity:  40%
Barometer:  1028 hPa
Summary:  Clear
Visibility:  greater than 10 km
2018/02/25 18:50 EBAW 251850Z 06010KT CAVOK M01/M13 Q1028 NOSIG
EBCI - Charleroi/Gosselies, Belgium
Distance from station: SSW 51km
Updated: 25-02-2018 19:50
Clear
Clear  
 Wind from NE
Wind: NE 22 km/h
Temperature:  -3°C
Wind Chill:  -9°C
Dew Point:  -13°C
Humidity:  46%
Barometer:  1025 hPa
Summary:  Clear
Visibility:  greater than 10 km
2018/02/25 18:50 EBCI 251850Z 05012KT CAVOK M03/M13 Q1025 NOSIG
EBLG - Bierset/Liege, Belgium
Distance from station: ESE 60km
Updated: 25-02-2018 19:50
Clear
Clear  
 Wind from NE
Wind: NE 22 km/h
Temperature:  -3°C
Wind Chill:  -9°C
Dew Point:  -14°C
Humidity:  43%
Barometer:  1026 hPa
Summary:  Clear
Visibility:  greater than 10 km
2018/02/25 18:50 EBLG 251850Z 05012KT CAVOK M03/M14 Q1026 NOSIG

Script developed by  Saratoga-weather.org Adapted for the template by  Weerstation Leuven

You find our weather info also at:


Het Weer Aktueel

European Weather Network

Weather Underground

AWEKAS

HAMweather, WeatherForYou, PWS Weather

Equipment we use:


Weather-station
Davis VP2 Plus

Weather-program
Weather Display

Davis VP2 Plus

Weather Display